sensor_id;sensor_type;location;lat;lon;timestamp;pressure;altitude;pressure_sealevel;temperature
26158;BMP280;67284;44.782;10.282;2023-03-19T00:03:46;101304.34;;;11.45
26158;BMP280;67284;44.782;10.282;2023-03-19T00:08:38;101298.38;;;11.39
26158;BMP280;67284;44.782;10.282;2023-03-19T00:13:29;101284.63;;;11.39
26158;BMP280;67284;44.782;10.282;2023-03-19T00:18:22;101282.91;;;11.39
26158;BMP280;67284;44.782;10.282;2023-03-19T00:23:13;101280.31;;;11.43
26158;BMP280;67284;44.782;10.282;2023-03-19T00:28:05;101289.75;;;11.46
26158;BMP280;67284;44.782;10.282;2023-03-19T00:32:57;101276.03;;;11.47
26158;BMP280;67284;44.782;10.282;2023-03-19T00:37:48;101285.44;;;11.46
26158;BMP280;67284;44.782;10.282;2023-03-19T00:42:40;101282.03;;;11.44
26158;BMP280;67284;44.782;10.282;2023-03-19T00:47:34;101275.16;;;11.43
26158;BMP280;67284;44.782;10.282;2023-03-19T00:52:26;101263.13;;;11.44
26158;BMP280;67284;44.782;10.282;2023-03-19T00:57:18;101273.44;;;11.42
26158;BMP280;67284;44.782;10.282;2023-03-19T01:02:10;101261.41;;;11.39
26158;BMP280;67284;44.782;10.282;2023-03-19T01:07:02;101261.41;;;11.39
26158;BMP280;67284;44.782;10.282;2023-03-19T01:11:54;101263.13;;;11.40
26158;BMP280;67284;44.782;10.282;2023-03-19T01:16:45;101269.16;;;11.39
26158;BMP280;67284;44.782;10.282;2023-03-19T01:21:37;101272.63;;;11.36
26158;BMP280;67284;44.782;10.282;2023-03-19T01:26:29;101274.31;;;11.36
26158;BMP280;67284;44.782;10.282;2023-03-19T01:31:35;101273.47;;;11.38
26158;BMP280;67284;44.782;10.282;2023-03-19T01:36:40;101268.34;;;11.34
26158;BMP280;67284;44.782;10.282;2023-03-19T01:41:32;101266.59;;;11.33
26158;BMP280;67284;44.782;10.282;2023-03-19T01:46:36;101264.91;;;11.32
26158;BMP280;67284;44.782;10.282;2023-03-19T01:51:38;101260.59;;;11.32
26158;BMP280;67284;44.782;10.282;2023-03-19T01:56:42;101252.91;;;11.28
26158;BMP280;67284;44.782;10.282;2023-03-19T02:01:52;101249.44;;;11.27
26158;BMP280;67284;44.782;10.282;2023-03-19T02:06:47;101257.16;;;11.29
26158;BMP280;67284;44.782;10.282;2023-03-19T02:11:39;101244.28;;;11.29
26158;BMP280;67284;44.782;10.282;2023-03-19T02:16:31;101243.44;;;11.30
26158;BMP280;67284;44.782;10.282;2023-03-19T02:21:23;101246.00;;;11.31
26158;BMP280;67284;44.782;10.282;2023-03-19T02:26:20;101247.72;;;11.31
26158;BMP280;67284;44.782;10.282;2023-03-19T02:31:15;101237.44;;;11.29
26158;BMP280;67284;44.782;10.282;2023-03-19T02:36:14;101235.72;;;11.30
26158;BMP280;67284;44.782;10.282;2023-03-19T02:41:08;101237.44;;;11.31
26158;BMP280;67284;44.782;10.282;2023-03-19T02:46:01;101241.72;;;11.29
26158;BMP280;67284;44.782;10.282;2023-03-19T02:50:52;101240.03;;;11.28
26158;BMP280;67284;44.782;10.282;2023-03-19T02:55:44;101234.88;;;11.26
26158;BMP280;67284;44.782;10.282;2023-03-19T03:00:36;101238.31;;;11.27
26158;BMP280;67284;44.782;10.282;2023-03-19T03:05:28;101232.31;;;11.26
26158;BMP280;67284;44.782;10.282;2023-03-19T03:10:20;101227.16;;;11.25
26158;BMP280;67284;44.782;10.282;2023-03-19T03:15:12;101237.47;;;11.25
26158;BMP280;67284;44.782;10.282;2023-03-19T03:20:06;101236.56;;;11.26
26158;BMP280;67284;44.782;10.282;2023-03-19T03:24:57;101242.59;;;11.28
26158;BMP280;67284;44.782;10.282;2023-03-19T03:29:49;101252.91;;;11.28
26158;BMP280;67284;44.782;10.282;2023-03-19T03:34:41;101244.31;;;11.26
26158;BMP280;67284;44.782;10.282;2023-03-19T03:39:33;101248.63;;;11.24
26158;BMP280;67284;44.782;10.282;2023-03-19T03:44:24;101252.91;;;11.22
26158;BMP280;67284;44.782;10.282;2023-03-19T03:49:17;101251.22;;;11.21
26158;BMP280;67284;44.782;10.282;2023-03-19T03:54:09;101252.91;;;11.23
26158;BMP280;67284;44.782;10.282;2023-03-19T03:59:00;101254.63;;;11.23
26158;BMP280;67284;44.782;10.282;2023-03-19T04:03:52;101255.50;;;11.20
26158;BMP280;67284;44.782;10.282;2023-03-19T04:08:45;101261.53;;;11.16
26158;BMP280;67284;44.782;10.282;2023-03-19T04:13:37;101275.28;;;11.14
26158;BMP280;67284;44.782;10.282;2023-03-19T04:18:29;101279.56;;;11.13
26158;BMP280;67284;44.782;10.282;2023-03-19T04:23:23;101276.97;;;11.12
26158;BMP280;67284;44.782;10.282;2023-03-19T04:28:15;101278.72;;;11.13
26158;BMP280;67284;44.782;10.282;2023-03-19T04:33:07;101287.28;;;11.12
26158;BMP280;67284;44.782;10.282;2023-03-19T04:37:59;101284.72;;;11.10
26158;BMP280;67284;44.782;10.282;2023-03-19T04:42:51;101289.03;;;11.10
26158;BMP280;67284;44.782;10.282;2023-03-19T04:47:56;101295.91;;;11.11
26158;BMP280;67284;44.782;10.282;2023-03-19T04:52:49;101301.91;;;11.10
26158;BMP280;67284;44.782;10.282;2023-03-19T04:57:41;101304.47;;;11.08
26158;BMP280;67284;44.782;10.282;2023-03-19T05:02:33;101299.34;;;11.07
26158;BMP280;67284;44.782;10.282;2023-03-19T05:07:26;101295.88;;;11.05
26158;BMP280;67284;44.782;10.282;2023-03-19T05:12:20;101301.03;;;11.08
26158;BMP280;67284;44.782;10.282;2023-03-19T05:17:15;101296.75;;;11.10
26158;BMP280;67284;44.782;10.282;2023-03-19T05:22:20;101296.75;;;11.08
26158;BMP280;67284;44.782;10.282;2023-03-19T05:27:12;101294.19;;;11.05
26158;BMP280;67284;44.782;10.282;2023-03-19T05:32:27;101305.34;;;11.03
26158;BMP280;67284;44.782;10.282;2023-03-19T05:37:24;101300.22;;;10.98
26158;BMP280;67284;44.782;10.282;2023-03-19T05:42:21;101315.66;;;10.98
26158;BMP280;67284;44.782;10.282;2023-03-19T05:47:13;101313.09;;;11.00
26158;BMP280;67284;44.782;10.282;2023-03-19T05:52:11;101317.38;;;11.01
26158;BMP280;67284;44.782;10.282;2023-03-19T05:57:03;101330.25;;;11.01
26158;BMP280;67284;44.782;10.282;2023-03-19T06:02:08;101335.41;;;11.02
26158;BMP280;67284;44.782;10.282;2023-03-19T06:07:02;101329.34;;;11.08
26158;BMP280;67284;44.782;10.282;2023-03-19T06:11:55;101325.09;;;11.04
26158;BMP280;67284;44.782;10.282;2023-03-19T06:17:05;101341.41;;;11.03
26158;BMP280;67284;44.782;10.282;2023-03-19T06:21:57;101346.56;;;11.01
26158;BMP280;67284;44.782;10.282;2023-03-19T06:26:49;101356.03;;;11.01
26158;BMP280;67284;44.782;10.282;2023-03-19T06:31:42;101359.44;;;11.03
26158;BMP280;67284;44.782;10.282;2023-03-19T06:36:42;101354.28;;;11.06
26158;BMP280;67284;44.782;10.282;2023-03-19T06:41:36;101355.13;;;11.06
26158;BMP280;67284;44.782;10.282;2023-03-19T06:46:41;101366.31;;;11.05
26158;BMP280;67284;44.782;10.282;2023-03-19T06:51:33;101374.03;;;11.08
26158;BMP280;67284;44.782;10.282;2023-03-19T06:56:24;101380.03;;;11.06
26158;BMP280;67284;44.782;10.282;2023-03-19T07:01:16;101386.91;;;11.05
26158;BMP280;67284;44.782;10.282;2023-03-19T07:06:08;101385.19;;;11.06
26158;BMP280;67284;44.782;10.282;2023-03-19T07:11:06;101390.34;;;11.06
26158;BMP280;67284;44.782;10.282;2023-03-19T07:15:59;101397.22;;;11.04
26158;BMP280;67284;44.782;10.282;2023-03-19T07:20:51;101401.47;;;11.08
26158;BMP280;67284;44.782;10.282;2023-03-19T07:25:43;101403.19;;;11.09
26158;BMP280;67284;44.782;10.282;2023-03-19T07:30:36;101414.38;;;11.11
26158;BMP280;67284;44.782;10.282;2023-03-19T07:35:29;101412.66;;;11.10
26158;BMP280;67284;44.782;10.282;2023-03-19T07:40:20;101416.09;;;11.09
26158;BMP280;67284;44.782;10.282;2023-03-19T07:45:12;101417.81;;;11.08
26158;BMP280;67284;44.782;10.282;2023-03-19T07:50:04;101420.38;;;11.08
26158;BMP280;67284;44.782;10.282;2023-03-19T07:54:56;101416.97;;;11.11
26158;BMP280;67284;44.782;10.282;2023-03-19T07:59:48;101425.53;;;11.13
26158;BMP280;67284;44.782;10.282;2023-03-19T08:04:40;101414.38;;;11.15
26158;BMP280;67284;44.782;10.282;2023-03-19T08:09:32;101420.38;;;11.13
26158;BMP280;67284;44.782;10.282;2023-03-19T08:14:25;101433.25;;;11.16
26158;BMP280;67284;44.782;10.282;2023-03-19T08:19:16;101434.13;;;11.16
26158;BMP280;67284;44.782;10.282;2023-03-19T08:24:12;101427.25;;;11.15
26158;BMP280;67284;44.782;10.282;2023-03-19T08:29:04;101430.69;;;11.14
26158;BMP280;67284;44.782;10.282;2023-03-19T08:33:55;101431.56;;;11.18
26158;BMP280;67284;44.782;10.282;2023-03-19T08:38:50;101439.28;;;11.22
26158;BMP280;67284;44.782;10.282;2023-03-19T08:43:45;101443.56;;;11.25
26158;BMP280;67284;44.782;10.282;2023-03-19T08:48:37;101443.56;;;11.25
26158;BMP280;67284;44.782;10.282;2023-03-19T08:53:32;101443.56;;;11.28
26158;BMP280;67284;44.782;10.282;2023-03-19T08:58:24;101438.41;;;11.28
26158;BMP280;67284;44.782;10.282;2023-03-19T09:03:16;101434.97;;;11.32
26158;BMP280;67284;44.782;10.282;2023-03-19T09:08:09;101452.13;;;11.33
26158;BMP280;67284;44.782;10.282;2023-03-19T09:13:01;101451.25;;;11.37
26158;BMP280;67284;44.782;10.282;2023-03-19T09:17:52;101434.06;;;11.39
26158;BMP280;67284;44.782;10.282;2023-03-19T09:22:44;101421.19;;;11.39
26158;BMP280;67284;44.782;10.282;2023-03-19T09:27:36;101424.63;;;11.43
26158;BMP280;67284;44.782;10.282;2023-03-19T09:32:28;101421.22;;;11.50
26158;BMP280;67284;44.782;10.282;2023-03-19T09:37:20;101422.91;;;11.54
26158;BMP280;67284;44.782;10.282;2023-03-19T09:42:39;101421.19;;;11.65
26158;BMP280;67284;44.782;10.282;2023-03-19T09:47:33;101433.19;;;11.75
26158;BMP280;67284;44.782;10.282;2023-03-19T09:57:18;101436.56;;;11.80
26158;BMP280;67284;44.782;10.282;2023-03-19T10:02:34;101438.31;;;11.78
26158;BMP280;67284;44.782;10.282;2023-03-19T10:12:47;101437.44;;;11.75
26158;BMP280;67284;44.782;10.282;2023-03-19T10:23:22;101442.59;;;11.75
26158;BMP280;67284;44.782;10.282;2023-03-19T10:28:17;101436.59;;;11.76
26158;BMP280;67284;44.782;10.282;2023-03-19T10:33:23;101436.59;;;11.77
26158;BMP280;67284;44.782;10.282;2023-03-19T10:38:19;101435.72;;;11.86
26158;BMP280;67284;44.782;10.282;2023-03-19T10:43:21;101430.56;;;11.86
26158;BMP280;67284;44.782;10.282;2023-03-19T10:48:17;101433.13;;;11.87
26158;BMP280;67284;44.782;10.282;2023-03-19T10:58:08;101422.81;;;11.87
26158;BMP280;67284;44.782;10.282;2023-03-19T11:08:20;101414.19;;;11.91
26158;BMP280;67284;44.782;10.282;2023-03-19T11:13:25;101401.25;;;11.98
26158;BMP280;67284;44.782;10.282;2023-03-19T11:18:26;101402.97;;;11.99
26158;BMP280;67284;44.782;10.282;2023-03-19T11:23:18;101398.69;;;11.97
26158;BMP280;67284;44.782;10.282;2023-03-19T11:28:13;101390.94;;;11.97
26158;BMP280;67284;44.782;10.282;2023-03-19T11:38:54;101385.78;;;11.97
26158;BMP280;67284;44.782;10.282;2023-03-19T11:44:04;101387.50;;;11.98
26158;BMP280;67284;44.782;10.282;2023-03-19T11:49:14;101392.66;;;12.01
26158;BMP280;67284;44.782;10.282;2023-03-19T11:59:32;101372.88;;;12.01
26158;BMP280;67284;44.782;10.282;2023-03-19T12:34:51;101333.22;;;12.19
26158;BMP280;67284;44.782;10.282;2023-03-19T12:39:57;101328.03;;;12.22
26158;BMP280;67284;44.782;10.282;2023-03-19T12:44:56;101325.47;;;12.19
26158;BMP280;67284;44.782;10.282;2023-03-19T12:49:56;101316.00;;;12.21
26158;BMP280;67284;44.782;10.282;2023-03-19T12:54:55;101321.16;;;12.19
26158;BMP280;67284;44.782;10.282;2023-03-19T13:00:07;101319.47;;;12.17
26158;BMP280;67284;44.782;10.282;2023-03-19T13:10:20;101300.47;;;12.30
26158;BMP280;67284;44.782;10.282;2023-03-19T13:25:14;101294.31;;;12.44
26158;BMP280;67284;44.782;10.282;2023-03-19T13:40:49;101300.31;;;12.50
26158;BMP280;67284;44.782;10.282;2023-03-19T13:45:42;101283.03;;;12.55
26158;BMP280;67284;44.782;10.282;2023-03-19T13:50:55;101273.53;;;12.60
26158;BMP280;67284;44.782;10.282;2023-03-19T13:55:53;101274.38;;;12.62
26158;BMP280;67284;44.782;10.282;2023-03-19T14:05:37;101270.91;;;12.65
26158;BMP280;67284;44.782;10.282;2023-03-19T14:10:30;101263.13;;;12.66
26158;BMP280;67284;44.782;10.282;2023-03-19T14:15:23;101255.31;;;12.74
26158;BMP280;67284;44.782;10.282;2023-03-19T14:25:21;101251.16;;;12.61
26158;BMP280;67284;44.782;10.282;2023-03-19T14:30:30;101250.25;;;12.65
26158;BMP280;67284;44.782;10.282;2023-03-19T14:35:24;101250.16;;;12.72
26158;BMP280;67284;44.782;10.282;2023-03-19T14:40:25;101243.25;;;12.77
26158;BMP280;67284;44.782;10.282;2023-03-19T14:45:45;101233.84;;;12.70
26158;BMP280;67284;44.782;10.282;2023-03-19T14:51:10;101239.81;;;12.75
26158;BMP280;67284;44.782;10.282;2023-03-19T14:56:18;101243.25;;;12.76
26158;BMP280;67284;44.782;10.282;2023-03-19T15:01:11;101246.72;;;12.73
26158;BMP280;67284;44.782;10.282;2023-03-19T15:06:05;101248.44;;;12.76
26158;BMP280;67284;44.782;10.282;2023-03-19T15:16:30;101262.09;;;12.85
26158;BMP280;67284;44.782;10.282;2023-03-19T15:21:28;101257.81;;;12.83
26158;BMP280;67284;44.782;10.282;2023-03-19T15:26:31;101272.50;;;12.78
26158;BMP280;67284;44.782;10.282;2023-03-19T15:31:46;101262.22;;;12.73
26158;BMP280;67284;44.782;10.282;2023-03-19T15:37:00;101268.28;;;12.68
26158;BMP280;67284;44.782;10.282;2023-03-19T15:41:53;101262.25;;;12.70
26158;BMP280;67284;44.782;10.282;2023-03-19T15:46:46;101263.88;;;12.80
26158;BMP280;67284;44.782;10.282;2023-03-19T15:51:39;101258.69;;;12.82
26158;BMP280;67284;44.782;10.282;2023-03-19T15:56:31;101262.22;;;12.73
26158;BMP280;67284;44.782;10.282;2023-03-19T16:01:23;101257.13;;;12.67
26158;BMP280;67284;44.782;10.282;2023-03-19T16:06:45;101266.63;;;12.62
26158;BMP280;67284;44.782;10.282;2023-03-19T16:11:40;101273.56;;;12.59
26158;BMP280;67284;44.782;10.282;2023-03-19T16:16:32;101276.16;;;12.57
26158;BMP280;67284;44.782;10.282;2023-03-19T16:21:42;101282.19;;;12.55
26158;BMP280;67284;44.782;10.282;2023-03-19T16:26:39;101277.03;;;12.55
26158;BMP280;67284;44.782;10.282;2023-03-19T16:31:41;101279.59;;;12.56
26158;BMP280;67284;44.782;10.282;2023-03-19T16:36:33;101290.81;;;12.52
26158;BMP280;67284;44.782;10.282;2023-03-19T16:41:29;101292.56;;;12.50
26158;BMP280;67284;44.782;10.282;2023-03-19T16:46:25;101302.03;;;12.48
26158;BMP280;67284;44.782;10.282;2023-03-19T16:51:19;101300.28;;;12.47
26158;BMP280;67284;44.782;10.282;2023-03-19T16:56:13;101308.94;;;12.47
26158;BMP280;67284;44.782;10.282;2023-03-19T17:01:17;101314.09;;;12.47
26158;BMP280;67284;44.782;10.282;2023-03-19T17:06:14;101312.38;;;12.44
26158;BMP280;67284;44.782;10.282;2023-03-19T17:11:13;101315.81;;;12.45
26158;BMP280;67284;44.782;10.282;2023-03-19T17:16:06;101318.41;;;12.43
26158;BMP280;67284;44.782;10.282;2023-03-19T17:21:05;101327.03;;;12.42
26158;BMP280;67284;44.782;10.282;2023-03-19T17:25:59;101331.34;;;12.42
26158;BMP280;67284;44.782;10.282;2023-03-19T17:30:51;101327.06;;;12.41
26158;BMP280;67284;44.782;10.282;2023-03-19T17:35:43;101318.41;;;12.42
26158;BMP280;67284;44.782;10.282;2023-03-19T17:40:34;101320.16;;;12.43
26158;BMP280;67284;44.782;10.282;2023-03-19T17:45:28;101314.13;;;12.42
26158;BMP280;67284;44.782;10.282;2023-03-19T17:50:24;101309.84;;;12.41
26158;BMP280;67284;44.782;10.282;2023-03-19T17:55:23;101319.28;;;12.39
26158;BMP280;67284;44.782;10.282;2023-03-19T18:00:17;101315.88;;;12.39
26158;BMP280;67284;44.782;10.282;2023-03-19T18:05:14;101325.38;;;12.37
26158;BMP280;67284;44.782;10.282;2023-03-19T18:10:20;101324.47;;;12.36
26158;BMP280;67284;44.782;10.282;2023-03-19T18:15:13;101327.06;;;12.36
26158;BMP280;67284;44.782;10.282;2023-03-19T18:20:05;101321.09;;;12.33
26158;BMP280;67284;44.782;10.282;2023-03-19T18:24:57;101313.34;;;12.31
26158;BMP280;67284;44.782;10.282;2023-03-19T18:29:49;101319.34;;;12.33
26158;BMP280;67284;44.782;10.282;2023-03-19T18:34:41;101333.09;;;12.32
26158;BMP280;67284;44.782;10.282;2023-03-19T18:39:33;101333.13;;;12.29
26158;BMP280;67284;44.782;10.282;2023-03-19T18:44:28;101342.59;;;12.30
26158;BMP280;67284;44.782;10.282;2023-03-19T18:49:23;101344.34;;;12.30
26158;BMP280;67284;44.782;10.282;2023-03-19T18:54:15;101348.59;;;12.31
26158;BMP280;67284;44.782;10.282;2023-03-19T18:59:20;101347.75;;;12.30
26158;BMP280;67284;44.782;10.282;2023-03-19T19:04:16;101358.94;;;12.31
26158;BMP280;67284;44.782;10.282;2023-03-19T19:09:08;101354.66;;;12.30
26158;BMP280;67284;44.782;10.282;2023-03-19T19:14:01;101364.97;;;12.30
26158;BMP280;67284;44.782;10.282;2023-03-19T19:18:53;101364.13;;;12.28
26158;BMP280;67284;44.782;10.282;2023-03-19T19:23:45;101357.25;;;12.28
26158;BMP280;67284;44.782;10.282;2023-03-19T19:28:38;101361.53;;;12.26
26158;BMP280;67284;44.782;10.282;2023-03-19T19:33:33;101377.03;;;12.25
26158;BMP280;67284;44.782;10.282;2023-03-19T19:38:26;101369.28;;;12.25
26158;BMP280;67284;44.782;10.282;2023-03-19T19:43:20;101365.88;;;12.24
26158;BMP280;67284;44.782;10.282;2023-03-19T19:48:16;101360.69;;;12.26
26158;BMP280;67284;44.782;10.282;2023-03-19T19:53:08;101361.53;;;12.26
26158;BMP280;67284;44.782;10.282;2023-03-19T19:58:00;101370.16;;;12.27
26158;BMP280;67284;44.782;10.282;2023-03-19T20:02:53;101357.25;;;12.27
26158;BMP280;67284;44.782;10.282;2023-03-19T20:07:45;101359.84;;;12.25
26158;BMP280;67284;44.782;10.282;2023-03-19T20:12:36;101359.84;;;12.25
26158;BMP280;67284;44.782;10.282;2023-03-19T20:17:28;101371.03;;;12.24
26158;BMP280;67284;44.782;10.282;2023-03-19T20:22:21;101373.63;;;12.23
26158;BMP280;67284;44.782;10.282;2023-03-19T20:27:25;101376.22;;;12.23
26158;BMP280;67284;44.782;10.282;2023-03-19T20:32:30;101385.66;;;12.22
26158;BMP280;67284;44.782;10.282;2023-03-19T20:37:24;101378.78;;;12.23
26158;BMP280;67284;44.782;10.282;2023-03-19T20:42:15;101383.09;;;12.21
26158;BMP280;67284;44.782;10.282;2023-03-19T20:47:15;101395.97;;;12.22
26158;BMP280;67284;44.782;10.282;2023-03-19T20:52:08;101398.53;;;12.24
26158;BMP280;67284;44.782;10.282;2023-03-19T20:57:02;101393.38;;;12.22
26158;BMP280;67284;44.782;10.282;2023-03-19T21:01:54;101386.53;;;12.21
26158;BMP280;67284;44.782;10.282;2023-03-19T21:06:47;101385.66;;;12.21
26158;BMP280;67284;44.782;10.282;2023-03-19T21:11:44;101371.91;;;12.20
26158;BMP280;67284;44.782;10.282;2023-03-19T21:16:36;101376.22;;;12.21
26158;BMP280;67284;44.782;10.282;2023-03-19T21:21:33;101381.38;;;12.23
26158;BMP280;67284;44.782;10.282;2023-03-19T21:26:25;101375.34;;;12.19
26158;BMP280;67284;44.782;10.282;2023-03-19T21:31:18;101374.50;;;12.19
26158;BMP280;67284;44.782;10.282;2023-03-19T21:36:11;101364.19;;;12.19
26158;BMP280;67284;44.782;10.282;2023-03-19T21:41:10;101375.34;;;12.21
26158;BMP280;67284;44.782;10.282;2023-03-19T21:46:12;101371.91;;;12.22
26158;BMP280;67284;44.782;10.282;2023-03-19T21:51:14;101383.94;;;12.24
26158;BMP280;67284;44.782;10.282;2023-03-19T21:56:21;101381.34;;;12.26
26158;BMP280;67284;44.782;10.282;2023-03-19T22:01:19;101371.88;;;12.26
26158;BMP280;67284;44.782;10.282;2023-03-19T22:06:11;101372.75;;;12.27
26158;BMP280;67284;44.782;10.282;2023-03-19T22:11:11;101361.53;;;12.26
26158;BMP280;67284;44.782;10.282;2023-03-19T22:16:04;101363.28;;;12.24
26158;BMP280;67284;44.782;10.282;2023-03-19T22:20:55;101376.19;;;12.26
26158;BMP280;67284;44.782;10.282;2023-03-19T22:25:49;101373.59;;;12.26
26158;BMP280;67284;44.782;10.282;2023-03-19T22:30:42;101371.88;;;12.26
26158;BMP280;67284;44.782;10.282;2023-03-19T22:35:33;101376.16;;;12.27
26158;BMP280;67284;44.782;10.282;2023-03-19T22:40:26;101372.75;;;12.27
26158;BMP280;67284;44.782;10.282;2023-03-19T22:50:16;101365.84;;;12.29
26158;BMP280;67284;44.782;10.282;2023-03-19T22:55:09;101372.75;;;12.27
26158;BMP280;67284;44.782;10.282;2023-03-19T23:00:02;101377.03;;;12.26
26158;BMP280;67284;44.782;10.282;2023-03-19T23:04:54;101365.00;;;12.27
26158;BMP280;67284;44.782;10.282;2023-03-19T23:09:46;101358.13;;;12.26
26158;BMP280;67284;44.782;10.282;2023-03-19T23:14:38;101355.53;;;12.26
26158;BMP280;67284;44.782;10.282;2023-03-19T23:19:32;101355.53;;;12.26
26158;BMP280;67284;44.782;10.282;2023-03-19T23:24:24;101340.06;;;12.26
26158;BMP280;67284;44.782;10.282;2023-03-19T23:29:19;101337.47;;;12.26
26158;BMP280;67284;44.782;10.282;2023-03-19T23:34:15;101334.91;;;12.26
26158;BMP280;67284;44.782;10.282;2023-03-19T23:39:07;101337.50;;;12.24
26158;BMP280;67284;44.782;10.282;2023-03-19T23:44:02;101339.19;;;12.24
26158;BMP280;67284;44.782;10.282;2023-03-19T23:48:55;101336.63;;;12.24
26158;BMP280;67284;44.782;10.282;2023-03-19T23:53:47;101343.53;;;12.22
26158;BMP280;67284;44.782;10.282;2023-03-19T23:58:40;101334.94;;;12.21
